sensor_id;sensor_type;location;lat;lon;timestamp;P1;durP1;ratioP1;P2;durP2;ratioP2
19406;SDS011;9839;53.364;-1.204;2023-06-24T00:01:12;4.35;;;1.80;;
19406;SDS011;9839;53.364;-1.204;2023-06-24T00:03:38;2.35;;;1.58;;
19406;SDS011;9839;53.364;-1.204;2023-06-24T00:06:04;3.90;;;1.80;;
19406;SDS011;9839;53.364;-1.204;2023-06-24T00:08:29;2.00;;;1.70;;
19406;SDS011;9839;53.364;-1.204;2023-06-24T00:10:59;2.95;;;1.85;;
19406;SDS011;9839;53.364;-1.204;2023-06-24T00:13:27;2.80;;;1.67;;
19406;SDS011;9839;53.364;-1.204;2023-06-24T00:15:53;3.88;;;1.75;;
19406;SDS011;9839;53.364;-1.204;2023-06-24T00:18:19;2.83;;;1.67;;
19406;SDS011;9839;53.364;-1.204;2023-06-24T00:20:44;2.80;;;1.95;;
19406;SDS011;9839;53.364;-1.204;2023-06-24T00:23:10;3.50;;;1.63;;
19406;SDS011;9839;53.364;-1.204;2023-06-24T00:25:39;5.80;;;1.83;;
19406;SDS011;9839;53.364;-1.204;2023-06-24T00:28:05;2.10;;;1.52;;
19406;SDS011;9839;53.364;-1.204;2023-06-24T00:30:30;3.13;;;1.70;;
19406;SDS011;9839;53.364;-1.204;2023-06-24T00:32:55;3.63;;;1.58;;
19406;SDS011;9839;53.364;-1.204;2023-06-24T00:35:21;2.80;;;1.45;;
19406;SDS011;9839;53.364;-1.204;2023-06-24T00:37:47;3.63;;;1.50;;
19406;SDS011;9839;53.364;-1.204;2023-06-24T00:40:12;2.35;;;1.40;;
19406;SDS011;9839;53.364;-1.204;2023-06-24T00:42:40;2.58;;;1.45;;
19406;SDS011;9839;53.364;-1.204;2023-06-24T00:45:06;2.13;;;1.50;;
19406;SDS011;9839;53.364;-1.204;2023-06-24T00:47:33;2.17;;;1.42;;
19406;SDS011;9839;53.364;-1.204;2023-06-24T00:49:59;3.20;;;1.30;;
19406;SDS011;9839;53.364;-1.204;2023-06-24T00:52:25;2.80;;;1.50;;
19406;SDS011;9839;53.364;-1.204;2023-06-24T00:54:50;1.77;;;1.30;;
19406;SDS011;9839;53.364;-1.204;2023-06-24T00:57:15;1.65;;;1.25;;
19406;SDS011;9839;53.364;-1.204;2023-06-24T00:59:42;2.58;;;1.33;;
19406;SDS011;9839;53.364;-1.204;2023-06-24T01:02:08;3.38;;;1.50;;
19406;SDS011;9839;53.364;-1.204;2023-06-24T01:04:34;5.43;;;1.48;;
19406;SDS011;9839;53.364;-1.204;2023-06-24T01:07:00;2.35;;;1.30;;
19406;SDS011;9839;53.364;-1.204;2023-06-24T01:09:25;3.25;;;1.30;;
19406;SDS011;9839;53.364;-1.204;2023-06-24T01:11:51;1.67;;;1.23;;
19406;SDS011;9839;53.364;-1.204;2023-06-24T01:14:17;3.50;;;1.42;;
19406;SDS011;9839;53.364;-1.204;2023-06-24T01:28:23;1.63;;;1.30;;
19406;SDS011;9839;53.364;-1.204;2023-06-24T01:37:32;2.97;;;1.42;;
19406;SDS011;9839;53.364;-1.204;2023-06-24T01:42:37;2.65;;;1.45;;
19406;SDS011;9839;53.364;-1.204;2023-06-24T01:45:05;2.00;;;1.10;;
19406;SDS011;9839;53.364;-1.204;2023-06-24T01:47:32;1.40;;;1.20;;
19406;SDS011;9839;53.364;-1.204;2023-06-24T01:49:58;3.40;;;1.10;;
19406;SDS011;9839;53.364;-1.204;2023-06-24T01:52:25;2.38;;;1.00;;
19406;SDS011;9839;53.364;-1.204;2023-06-24T01:54:51;2.80;;;1.20;;
19406;SDS011;9839;53.364;-1.204;2023-06-24T01:57:17;2.47;;;1.40;;
19406;SDS011;9839;53.364;-1.204;2023-06-24T01:59:42;4.82;;;1.65;;
19406;SDS011;9839;53.364;-1.204;2023-06-24T02:02:10;2.40;;;1.55;;
19406;SDS011;9839;53.364;-1.204;2023-06-24T02:04:37;3.15;;;1.67;;
19406;SDS011;9839;53.364;-1.204;2023-06-24T02:07:03;2.42;;;1.13;;
19406;SDS011;9839;53.364;-1.204;2023-06-24T02:09:29;2.97;;;1.17;;
19406;SDS011;9839;53.364;-1.204;2023-06-24T02:11:57;2.13;;;1.60;;
19406;SDS011;9839;53.364;-1.204;2023-06-24T02:14:23;1.90;;;1.17;;
19406;SDS011;9839;53.364;-1.204;2023-06-24T02:16:51;2.33;;;1.15;;
19406;SDS011;9839;53.364;-1.204;2023-06-24T02:19:21;2.60;;;1.40;;
19406;SDS011;9839;53.364;-1.204;2023-06-24T02:21:47;2.30;;;1.38;;
19406;SDS011;9839;53.364;-1.204;2023-06-24T02:24:13;3.58;;;1.55;;
19406;SDS011;9839;53.364;-1.204;2023-06-24T02:26:39;2.67;;;1.60;;
19406;SDS011;9839;53.364;-1.204;2023-06-24T02:29:06;2.00;;;1.40;;
19406;SDS011;9839;53.364;-1.204;2023-06-24T02:31:34;3.33;;;1.75;;
19406;SDS011;9839;53.364;-1.204;2023-06-24T02:33:59;2.13;;;1.30;;
19406;SDS011;9839;53.364;-1.204;2023-06-24T02:36:25;2.83;;;1.45;;
19406;SDS011;9839;53.364;-1.204;2023-06-24T02:38:50;2.47;;;1.60;;
19406;SDS011;9839;53.364;-1.204;2023-06-24T02:41:16;4.55;;;1.88;;
19406;SDS011;9839;53.364;-1.204;2023-06-24T02:43:41;4.00;;;1.75;;
19406;SDS011;9839;53.364;-1.204;2023-06-24T02:46:06;3.78;;;2.03;;
19406;SDS011;9839;53.364;-1.204;2023-06-24T02:48:33;5.35;;;1.90;;
19406;SDS011;9839;53.364;-1.204;2023-06-24T02:51:00;4.20;;;1.70;;
19406;SDS011;9839;53.364;-1.204;2023-06-24T02:53:26;2.00;;;1.73;;
19406;SDS011;9839;53.364;-1.204;2023-06-24T02:55:52;3.25;;;1.73;;
19406;SDS011;9839;53.364;-1.204;2023-06-24T02:58:19;2.33;;;1.40;;
19406;SDS011;9839;53.364;-1.204;2023-06-24T03:00:45;4.90;;;1.58;;
19406;SDS011;9839;53.364;-1.204;2023-06-24T03:03:11;2.20;;;1.40;;
19406;SDS011;9839;53.364;-1.204;2023-06-24T03:05:36;1.52;;;1.38;;
19406;SDS011;9839;53.364;-1.204;2023-06-24T03:08:02;2.85;;;1.60;;
19406;SDS011;9839;53.364;-1.204;2023-06-24T03:10:30;2.60;;;1.58;;
19406;SDS011;9839;53.364;-1.204;2023-06-24T03:12:56;4.38;;;1.75;;
19406;SDS011;9839;53.364;-1.204;2023-06-24T03:15:21;1.90;;;1.30;;
19406;SDS011;9839;53.364;-1.204;2023-06-24T03:17:47;5.63;;;1.70;;
19406;SDS011;9839;53.364;-1.204;2023-06-24T03:20:12;2.95;;;1.60;;
19406;SDS011;9839;53.364;-1.204;2023-06-24T03:22:38;2.97;;;1.95;;
19406;SDS011;9839;53.364;-1.204;2023-06-24T03:25:03;3.65;;;1.40;;
19406;SDS011;9839;53.364;-1.204;2023-06-24T03:27:29;3.20;;;1.58;;
19406;SDS011;9839;53.364;-1.204;2023-06-24T03:29:56;4.25;;;1.75;;
19406;SDS011;9839;53.364;-1.204;2023-06-24T03:32:22;5.00;;;2.20;;
19406;SDS011;9839;53.364;-1.204;2023-06-24T03:34:47;2.90;;;1.50;;
19406;SDS011;9839;53.364;-1.204;2023-06-24T03:37:13;1.95;;;1.58;;
19406;SDS011;9839;53.364;-1.204;2023-06-24T03:39:38;4.55;;;1.55;;
19406;SDS011;9839;53.364;-1.204;2023-06-24T03:42:03;5.80;;;2.20;;
19406;SDS011;9839;53.364;-1.204;2023-06-24T03:44:29;4.15;;;2.00;;
19406;SDS011;9839;53.364;-1.204;2023-06-24T03:46:55;5.13;;;2.05;;
19406;SDS011;9839;53.364;-1.204;2023-06-24T03:49:20;3.47;;;1.60;;
19406;SDS011;9839;53.364;-1.204;2023-06-24T03:51:46;4.13;;;1.60;;
19406;SDS011;9839;53.364;-1.204;2023-06-24T03:54:11;3.15;;;1.75;;
19406;SDS011;9839;53.364;-1.204;2023-06-24T03:56:37;2.97;;;1.85;;
19406;SDS011;9839;53.364;-1.204;2023-06-24T03:59:02;10.40;;;2.33;;
19406;SDS011;9839;53.364;-1.204;2023-06-24T04:01:28;3.13;;;1.52;;
19406;SDS011;9839;53.364;-1.204;2023-06-24T04:03:56;1.88;;;1.42;;
19406;SDS011;9839;53.364;-1.204;2023-06-24T04:06:22;2.33;;;1.52;;
19406;SDS011;9839;53.364;-1.204;2023-06-24T04:08:47;4.38;;;1.73;;
19406;SDS011;9839;53.364;-1.204;2023-06-24T04:11:13;5.78;;;2.00;;
19406;SDS011;9839;53.364;-1.204;2023-06-24T04:13:39;3.67;;;1.95;;
19406;SDS011;9839;53.364;-1.204;2023-06-24T04:16:05;4.70;;;2.00;;
19406;SDS011;9839;53.364;-1.204;2023-06-24T04:18:30;4.35;;;1.88;;
19406;SDS011;9839;53.364;-1.204;2023-06-24T04:20:55;4.43;;;1.95;;
19406;SDS011;9839;53.364;-1.204;2023-06-24T04:23:22;4.55;;;1.95;;
19406;SDS011;9839;53.364;-1.204;2023-06-24T04:25:48;3.05;;;1.63;;
19406;SDS011;9839;53.364;-1.204;2023-06-24T04:28:14;3.05;;;1.40;;
19406;SDS011;9839;53.364;-1.204;2023-06-24T04:30:39;3.75;;;2.05;;
19406;SDS011;9839;53.364;-1.204;2023-06-24T04:33:05;4.15;;;1.85;;
19406;SDS011;9839;53.364;-1.204;2023-06-24T04:35:30;2.05;;;1.50;;
19406;SDS011;9839;53.364;-1.204;2023-06-24T04:37:56;5.47;;;1.85;;
19406;SDS011;9839;53.364;-1.204;2023-06-24T04:40:21;5.40;;;1.83;;
19406;SDS011;9839;53.364;-1.204;2023-06-24T04:42:47;3.05;;;2.00;;
19406;SDS011;9839;53.364;-1.204;2023-06-24T04:45:12;3.42;;;1.73;;
19406;SDS011;9839;53.364;-1.204;2023-06-24T04:47:38;4.75;;;1.70;;
19406;SDS011;9839;53.364;-1.204;2023-06-24T04:50:03;4.50;;;2.38;;
19406;SDS011;9839;53.364;-1.204;2023-06-24T04:52:29;2.45;;;1.80;;
19406;SDS011;9839;53.364;-1.204;2023-06-24T04:54:55;4.43;;;2.20;;
19406;SDS011;9839;53.364;-1.204;2023-06-24T04:57:28;3.97;;;1.83;;
19406;SDS011;9839;53.364;-1.204;2023-06-24T04:59:54;5.88;;;2.10;;
19406;SDS011;9839;53.364;-1.204;2023-06-24T05:02:20;3.63;;;1.95;;
19406;SDS011;9839;53.364;-1.204;2023-06-24T05:04:46;3.45;;;2.13;;
19406;SDS011;9839;53.364;-1.204;2023-06-24T05:07:11;3.03;;;1.83;;
19406;SDS011;9839;53.364;-1.204;2023-06-24T05:09:37;4.32;;;2.20;;
19406;SDS011;9839;53.364;-1.204;2023-06-24T05:12:05;3.95;;;2.00;;
19406;SDS011;9839;53.364;-1.204;2023-06-24T05:14:33;2.63;;;2.17;;
19406;SDS011;9839;53.364;-1.204;2023-06-24T05:16:59;2.65;;;2.15;;
19406;SDS011;9839;53.364;-1.204;2023-06-24T05:19:25;4.72;;;2.20;;
19406;SDS011;9839;53.364;-1.204;2023-06-24T05:21:51;5.78;;;2.42;;
19406;SDS011;9839;53.364;-1.204;2023-06-24T05:24:16;5.78;;;2.47;;
19406;SDS011;9839;53.364;-1.204;2023-06-24T05:26:42;4.05;;;2.35;;
19406;SDS011;9839;53.364;-1.204;2023-06-24T05:29:07;4.22;;;2.33;;
19406;SDS011;9839;53.364;-1.204;2023-06-24T05:31:32;4.22;;;2.33;;
19406;SDS011;9839;53.364;-1.204;2023-06-24T05:33:58;2.85;;;2.03;;
19406;SDS011;9839;53.364;-1.204;2023-06-24T05:36:23;3.83;;;2.15;;
19406;SDS011;9839;53.364;-1.204;2023-06-24T05:38:49;5.88;;;2.28;;
19406;SDS011;9839;53.364;-1.204;2023-06-24T05:41:14;2.67;;;2.10;;
19406;SDS011;9839;53.364;-1.204;2023-06-24T05:43:42;3.90;;;2.50;;
19406;SDS011;9839;53.364;-1.204;2023-06-24T05:46:08;3.95;;;2.42;;
19406;SDS011;9839;53.364;-1.204;2023-06-24T05:48:33;4.53;;;2.42;;
19406;SDS011;9839;53.364;-1.204;2023-06-24T05:50:58;4.40;;;2.55;;
19406;SDS011;9839;53.364;-1.204;2023-06-24T05:53:24;4.43;;;2.50;;
19406;SDS011;9839;53.364;-1.204;2023-06-24T05:55:50;4.25;;;2.95;;
19406;SDS011;9839;53.364;-1.204;2023-06-24T05:58:15;4.10;;;2.60;;
19406;SDS011;9839;53.364;-1.204;2023-06-24T06:00:40;5.18;;;2.72;;
19406;SDS011;9839;53.364;-1.204;2023-06-24T06:03:06;4.85;;;2.75;;
19406;SDS011;9839;53.364;-1.204;2023-06-24T06:05:31;6.47;;;2.63;;
19406;SDS011;9839;53.364;-1.204;2023-06-24T06:07:57;5.40;;;2.72;;
19406;SDS011;9839;53.364;-1.204;2023-06-24T06:10:22;4.82;;;2.75;;
19406;SDS011;9839;53.364;-1.204;2023-06-24T06:12:48;7.53;;;2.58;;
19406;SDS011;9839;53.364;-1.204;2023-06-24T06:15:14;6.38;;;2.85;;
19406;SDS011;9839;53.364;-1.204;2023-06-24T06:17:39;3.40;;;2.67;;
19406;SDS011;9839;53.364;-1.204;2023-06-24T06:20:06;3.78;;;3.00;;
19406;SDS011;9839;53.364;-1.204;2023-06-24T06:22:31;5.65;;;2.90;;
19406;SDS011;9839;53.364;-1.204;2023-06-24T06:25:02;7.40;;;3.42;;
19406;SDS011;9839;53.364;-1.204;2023-06-24T06:27:28;3.22;;;2.47;;
19406;SDS011;9839;53.364;-1.204;2023-06-24T06:29:53;5.28;;;2.80;;
19406;SDS011;9839;53.364;-1.204;2023-06-24T06:32:18;3.00;;;2.40;;
19406;SDS011;9839;53.364;-1.204;2023-06-24T06:34:44;4.07;;;2.60;;
19406;SDS011;9839;53.364;-1.204;2023-06-24T06:37:09;5.43;;;2.28;;
19406;SDS011;9839;53.364;-1.204;2023-06-24T06:39:35;7.00;;;2.45;;
19406;SDS011;9839;53.364;-1.204;2023-06-24T06:42:00;5.65;;;2.72;;
19406;SDS011;9839;53.364;-1.204;2023-06-24T06:44:26;3.80;;;2.63;;
19406;SDS011;9839;53.364;-1.204;2023-06-24T06:46:51;8.13;;;3.13;;
19406;SDS011;9839;53.364;-1.204;2023-06-24T06:49:16;6.28;;;2.50;;
19406;SDS011;9839;53.364;-1.204;2023-06-24T06:51:42;5.70;;;2.30;;
19406;SDS011;9839;53.364;-1.204;2023-06-24T06:54:07;4.13;;;2.45;;
19406;SDS011;9839;53.364;-1.204;2023-06-24T06:56:33;4.60;;;2.50;;
19406;SDS011;9839;53.364;-1.204;2023-06-24T06:58:58;3.70;;;2.70;;
19406;SDS011;9839;53.364;-1.204;2023-06-24T07:01:23;3.25;;;2.40;;
19406;SDS011;9839;53.364;-1.204;2023-06-24T07:03:49;3.50;;;2.28;;
19406;SDS011;9839;53.364;-1.204;2023-06-24T07:06:17;4.50;;;2.25;;
19406;SDS011;9839;53.364;-1.204;2023-06-24T07:08:44;3.67;;;2.50;;
19406;SDS011;9839;53.364;-1.204;2023-06-24T07:11:09;4.15;;;2.42;;
19406;SDS011;9839;53.364;-1.204;2023-06-24T07:13:35;5.38;;;2.33;;
19406;SDS011;9839;53.364;-1.204;2023-06-24T07:16:00;3.00;;;2.03;;
19406;SDS011;9839;53.364;-1.204;2023-06-24T07:18:25;3.22;;;2.60;;
19406;SDS011;9839;53.364;-1.204;2023-06-24T07:20:55;6.32;;;2.60;;
19406;SDS011;9839;53.364;-1.204;2023-06-24T07:23:21;4.10;;;2.35;;
19406;SDS011;9839;53.364;-1.204;2023-06-24T07:25:46;6.25;;;2.47;;
19406;SDS011;9839;53.364;-1.204;2023-06-24T07:28:12;3.05;;;1.88;;
19406;SDS011;9839;53.364;-1.204;2023-06-24T07:30:37;3.40;;;2.15;;
19406;SDS011;9839;53.364;-1.204;2023-06-24T07:33:03;5.28;;;2.42;;
19406;SDS011;9839;53.364;-1.204;2023-06-24T07:35:30;3.58;;;2.10;;
19406;SDS011;9839;53.364;-1.204;2023-06-24T07:37:57;4.15;;;2.38;;
19406;SDS011;9839;53.364;-1.204;2023-06-24T07:40:23;4.30;;;2.10;;
19406;SDS011;9839;53.364;-1.204;2023-06-24T07:42:48;4.68;;;2.17;;
19406;SDS011;9839;53.364;-1.204;2023-06-24T07:45:14;2.92;;;1.63;;
19406;SDS011;9839;53.364;-1.204;2023-06-24T07:47:39;3.50;;;1.95;;
19406;SDS011;9839;53.364;-1.204;2023-06-24T07:50:05;3.42;;;1.77;;
19406;SDS011;9839;53.364;-1.204;2023-06-24T07:52:31;5.22;;;2.17;;
19406;SDS011;9839;53.364;-1.204;2023-06-24T07:54:56;2.60;;;2.10;;
19406;SDS011;9839;53.364;-1.204;2023-06-24T07:57:22;4.38;;;1.75;;
19406;SDS011;9839;53.364;-1.204;2023-06-24T07:59:47;6.45;;;2.30;;
19406;SDS011;9839;53.364;-1.204;2023-06-24T08:02:13;8.98;;;2.45;;
19406;SDS011;9839;53.364;-1.204;2023-06-24T08:04:38;4.43;;;2.33;;
19406;SDS011;9839;53.364;-1.204;2023-06-24T08:07:04;6.63;;;2.00;;
19406;SDS011;9839;53.364;-1.204;2023-06-24T08:09:30;4.78;;;2.10;;
19406;SDS011;9839;53.364;-1.204;2023-06-24T08:11:55;4.18;;;2.40;;
19406;SDS011;9839;53.364;-1.204;2023-06-24T08:14:20;3.90;;;2.22;;
19406;SDS011;9839;53.364;-1.204;2023-06-24T08:16:46;5.00;;;2.28;;
19406;SDS011;9839;53.364;-1.204;2023-06-24T08:19:11;6.97;;;2.40;;
19406;SDS011;9839;53.364;-1.204;2023-06-24T08:21:37;3.53;;;2.13;;
19406;SDS011;9839;53.364;-1.204;2023-06-24T08:24:03;2.75;;;2.05;;
19406;SDS011;9839;53.364;-1.204;2023-06-24T08:26:29;4.85;;;2.00;;
19406;SDS011;9839;53.364;-1.204;2023-06-24T08:28:55;2.08;;;1.48;;
19406;SDS011;9839;53.364;-1.204;2023-06-24T08:31:20;4.20;;;2.10;;
19406;SDS011;9839;53.364;-1.204;2023-06-24T08:33:48;4.65;;;1.90;;
19406;SDS011;9839;53.364;-1.204;2023-06-24T08:36:17;3.58;;;2.03;;
19406;SDS011;9839;53.364;-1.204;2023-06-24T08:38:43;2.33;;;1.67;;
19406;SDS011;9839;53.364;-1.204;2023-06-24T08:41:08;2.95;;;2.03;;
19406;SDS011;9839;53.364;-1.204;2023-06-24T08:43:34;2.30;;;1.63;;
19406;SDS011;9839;53.364;-1.204;2023-06-24T08:45:59;3.78;;;2.17;;
19406;SDS011;9839;53.364;-1.204;2023-06-24T08:48:25;2.05;;;1.42;;
19406;SDS011;9839;53.364;-1.204;2023-06-24T08:50:52;5.28;;;2.00;;
19406;SDS011;9839;53.364;-1.204;2023-06-24T08:53:20;4.88;;;1.90;;
19406;SDS011;9839;53.364;-1.204;2023-06-24T08:55:46;3.13;;;2.17;;
19406;SDS011;9839;53.364;-1.204;2023-06-24T08:58:12;2.40;;;1.80;;
19406;SDS011;9839;53.364;-1.204;2023-06-24T09:00:38;2.85;;;1.83;;
19406;SDS011;9839;53.364;-1.204;2023-06-24T09:03:03;3.70;;;1.95;;
19406;SDS011;9839;53.364;-1.204;2023-06-24T09:05:29;3.67;;;1.63;;
19406;SDS011;9839;53.364;-1.204;2023-06-24T09:07:55;6.60;;;1.90;;
19406;SDS011;9839;53.364;-1.204;2023-06-24T09:10:33;5.45;;;2.20;;
19406;SDS011;9839;53.364;-1.204;2023-06-24T09:13:00;2.63;;;2.05;;
19406;SDS011;9839;53.364;-1.204;2023-06-24T09:15:29;3.85;;;1.85;;
19406;SDS011;9839;53.364;-1.204;2023-06-24T09:17:57;4.28;;;2.03;;
19406;SDS011;9839;53.364;-1.204;2023-06-24T09:20:25;4.00;;;2.17;;
19406;SDS011;9839;53.364;-1.204;2023-06-24T09:22:51;3.78;;;2.10;;
19406;SDS011;9839;53.364;-1.204;2023-06-24T09:25:17;3.35;;;2.05;;
19406;SDS011;9839;53.364;-1.204;2023-06-24T09:27:49;10.60;;;2.05;;
19406;SDS011;9839;53.364;-1.204;2023-06-24T09:30:20;6.28;;;2.30;;
19406;SDS011;9839;53.364;-1.204;2023-06-24T09:32:49;3.38;;;1.80;;
19406;SDS011;9839;53.364;-1.204;2023-06-24T09:35:19;3.10;;;2.00;;
19406;SDS011;9839;53.364;-1.204;2023-06-24T09:37:51;5.18;;;3.13;;
19406;SDS011;9839;53.364;-1.204;2023-06-24T09:40:21;2.97;;;1.92;;
19406;SDS011;9839;53.364;-1.204;2023-06-24T09:42:57;3.25;;;1.92;;
19406;SDS011;9839;53.364;-1.204;2023-06-24T09:45:26;4.72;;;1.73;;
19406;SDS011;9839;53.364;-1.204;2023-06-24T09:47:53;3.70;;;1.92;;
19406;SDS011;9839;53.364;-1.204;2023-06-24T09:50:19;4.75;;;1.85;;
19406;SDS011;9839;53.364;-1.204;2023-06-24T09:52:45;3.20;;;1.60;;
19406;SDS011;9839;53.364;-1.204;2023-06-24T09:55:14;3.50;;;1.40;;
19406;SDS011;9839;53.364;-1.204;2023-06-24T09:57:45;1.85;;;1.50;;
19406;SDS011;9839;53.364;-1.204;2023-06-24T10:00:12;4.68;;;1.75;;
19406;SDS011;9839;53.364;-1.204;2023-06-24T10:02:40;2.63;;;1.80;;
19406;SDS011;9839;53.364;-1.204;2023-06-24T10:05:05;1.63;;;1.42;;
19406;SDS011;9839;53.364;-1.204;2023-06-24T10:07:31;2.35;;;1.50;;
19406;SDS011;9839;53.364;-1.204;2023-06-24T10:09:58;3.45;;;1.40;;
19406;SDS011;9839;53.364;-1.204;2023-06-24T10:12:23;2.45;;;1.48;;
19406;SDS011;9839;53.364;-1.204;2023-06-24T10:14:51;2.28;;;1.60;;
19406;SDS011;9839;53.364;-1.204;2023-06-24T10:17:17;1.50;;;1.40;;
19406;SDS011;9839;53.364;-1.204;2023-06-24T10:19:42;2.95;;;1.40;;
19406;SDS011;9839;53.364;-1.204;2023-06-24T10:22:09;2.67;;;1.40;;
19406;SDS011;9839;53.364;-1.204;2023-06-24T10:24:36;4.90;;;1.23;;
19406;SDS011;9839;53.364;-1.204;2023-06-24T10:27:08;2.50;;;1.40;;
19406;SDS011;9839;53.364;-1.204;2023-06-24T10:29:45;4.68;;;1.70;;
19406;SDS011;9839;53.364;-1.204;2023-06-24T10:32:11;3.08;;;2.10;;
19406;SDS011;9839;53.364;-1.204;2023-06-24T10:39:53;2.40;;;1.75;;
19406;SDS011;9839;53.364;-1.204;2023-06-24T10:44:48;3.85;;;1.70;;
19406;SDS011;9839;53.364;-1.204;2023-06-24T10:47:15;3.72;;;1.80;;
19406;SDS011;9839;53.364;-1.204;2023-06-24T10:49:40;3.65;;;1.48;;
19406;SDS011;9839;53.364;-1.204;2023-06-24T10:52:12;5.30;;;1.75;;
19406;SDS011;9839;53.364;-1.204;2023-06-24T10:54:38;5.20;;;1.52;;
19406;SDS011;9839;53.364;-1.204;2023-06-24T10:57:04;4.85;;;1.83;;
19406;SDS011;9839;53.364;-1.204;2023-06-24T10:59:43;2.53;;;1.85;;
19406;SDS011;9839;53.364;-1.204;2023-06-24T11:02:18;2.63;;;1.85;;
19406;SDS011;9839;53.364;-1.204;2023-06-24T11:04:46;2.78;;;1.50;;
19406;SDS011;9839;53.364;-1.204;2023-06-24T11:07:19;3.67;;;1.75;;
19406;SDS011;9839;53.364;-1.204;2023-06-24T11:09:54;3.60;;;1.70;;
19406;SDS011;9839;53.364;-1.204;2023-06-24T11:12:25;1.90;;;1.30;;
19406;SDS011;9839;53.364;-1.204;2023-06-24T11:14:55;3.05;;;1.40;;
19406;SDS011;9839;53.364;-1.204;2023-06-24T11:17:21;2.85;;;1.40;;
19406;SDS011;9839;53.364;-1.204;2023-06-24T11:19:47;1.88;;;1.30;;
19406;SDS011;9839;53.364;-1.204;2023-06-24T11:22:12;2.47;;;1.63;;
19406;SDS011;9839;53.364;-1.204;2023-06-24T11:24:38;2.60;;;1.25;;
19406;SDS011;9839;53.364;-1.204;2023-06-24T11:27:04;2.25;;;1.00;;
19406;SDS011;9839;53.364;-1.204;2023-06-24T11:29:30;3.00;;;1.30;;
19406;SDS011;9839;53.364;-1.204;2023-06-24T11:31:57;1.13;;;1.02;;
19406;SDS011;9839;53.364;-1.204;2023-06-24T11:34:22;1.77;;;1.13;;
19406;SDS011;9839;53.364;-1.204;2023-06-24T11:36:48;1.50;;;1.10;;
19406;SDS011;9839;53.364;-1.204;2023-06-24T11:39:27;4.18;;;1.50;;
19406;SDS011;9839;53.364;-1.204;2023-06-24T11:41:53;4.07;;;1.60;;
19406;SDS011;9839;53.364;-1.204;2023-06-24T11:44:19;2.88;;;1.60;;
19406;SDS011;9839;53.364;-1.204;2023-06-24T11:46:45;2.33;;;1.33;;
19406;SDS011;9839;53.364;-1.204;2023-06-24T11:49:11;3.03;;;1.60;;
19406;SDS011;9839;53.364;-1.204;2023-06-24T11:51:37;4.60;;;1.73;;
19406;SDS011;9839;53.364;-1.204;2023-06-24T11:54:13;2.47;;;1.92;;
19406;SDS011;9839;53.364;-1.204;2023-06-24T11:56:40;1.63;;;1.30;;
19406;SDS011;9839;53.364;-1.204;2023-06-24T11:59:09;1.98;;;1.50;;
19406;SDS011;9839;53.364;-1.204;2023-06-24T12:01:44;2.70;;;1.40;;
19406;SDS011;9839;53.364;-1.204;2023-06-24T12:04:10;2.00;;;1.50;;
19406;SDS011;9839;53.364;-1.204;2023-06-24T12:06:36;3.67;;;1.50;;
19406;SDS011;9839;53.364;-1.204;2023-06-24T12:09:01;2.60;;;1.75;;
19406;SDS011;9839;53.364;-1.204;2023-06-24T12:11:27;2.88;;;1.83;;
19406;SDS011;9839;53.364;-1.204;2023-06-24T12:13:52;5.78;;;1.65;;
19406;SDS011;9839;53.364;-1.204;2023-06-24T12:16:18;5.43;;;1.73;;
19406;SDS011;9839;53.364;-1.204;2023-06-24T12:18:43;12.70;;;1.75;;
19406;SDS011;9839;53.364;-1.204;2023-06-24T12:21:09;2.08;;;1.23;;
19406;SDS011;9839;53.364;-1.204;2023-06-24T12:23:35;3.83;;;1.75;;
19406;SDS011;9839;53.364;-1.204;2023-06-24T12:26:00;2.67;;;2.00;;
19406;SDS011;9839;53.364;-1.204;2023-06-24T12:28:26;3.08;;;1.70;;
19406;SDS011;9839;53.364;-1.204;2023-06-24T12:30:51;2.13;;;1.67;;
19406;SDS011;9839;53.364;-1.204;2023-06-24T12:33:17;1.98;;;1.50;;
19406;SDS011;9839;53.364;-1.204;2023-06-24T12:35:44;2.30;;;1.10;;
19406;SDS011;9839;53.364;-1.204;2023-06-24T12:38:10;1.33;;;1.02;;
19406;SDS011;9839;53.364;-1.204;2023-06-24T12:40:36;3.33;;;1.40;;
19406;SDS011;9839;53.364;-1.204;2023-06-24T12:43:01;3.45;;;1.30;;
19406;SDS011;9839;53.364;-1.204;2023-06-24T12:45:27;2.25;;;1.20;;
19406;SDS011;9839;53.364;-1.204;2023-06-24T12:47:53;2.35;;;1.20;;
19406;SDS011;9839;53.364;-1.204;2023-06-24T12:50:18;2.42;;;1.10;;
19406;SDS011;9839;53.364;-1.204;2023-06-24T12:52:43;1.20;;;1.10;;
19406;SDS011;9839;53.364;-1.204;2023-06-24T12:55:09;2.28;;;1.25;;
19406;SDS011;9839;53.364;-1.204;2023-06-24T12:57:35;1.73;;;1.33;;
19406;SDS011;9839;53.364;-1.204;2023-06-24T13:00:00;1.73;;;1.15;;
19406;SDS011;9839;53.364;-1.204;2023-06-24T13:02:26;3.13;;;1.27;;
19406;SDS011;9839;53.364;-1.204;2023-06-24T13:04:51;2.00;;;1.30;;
19406;SDS011;9839;53.364;-1.204;2023-06-24T13:07:17;1.23;;;1.00;;
19406;SDS011;9839;53.364;-1.204;2023-06-24T13:09:42;3.17;;;1.08;;
19406;SDS011;9839;53.364;-1.204;2023-06-24T13:12:08;1.25;;;1.00;;
19406;SDS011;9839;53.364;-1.204;2023-06-24T13:14:34;1.77;;;1.10;;
19406;SDS011;9839;53.364;-1.204;2023-06-24T13:16:59;3.00;;;1.20;;
19406;SDS011;9839;53.364;-1.204;2023-06-24T13:19:24;1.30;;;1.00;;
19406;SDS011;9839;53.364;-1.204;2023-06-24T13:21:50;5.30;;;1.23;;
19406;SDS011;9839;53.364;-1.204;2023-06-24T13:24:15;1.10;;;1.00;;
19406;SDS011;9839;53.364;-1.204;2023-06-24T13:26:41;2.20;;;1.15;;
19406;SDS011;9839;53.364;-1.204;2023-06-24T13:29:06;0.93;;;0.82;;
19406;SDS011;9839;53.364;-1.204;2023-06-24T13:31:32;2.17;;;1.10;;
19406;SDS011;9839;53.364;-1.204;2023-06-24T13:33:58;1.98;;;0.93;;
19406;SDS011;9839;53.364;-1.204;2023-06-24T13:36:33;1.20;;;0.98;;
19406;SDS011;9839;53.364;-1.204;2023-06-24T13:39:06;3.17;;;1.10;;
19406;SDS011;9839;53.364;-1.204;2023-06-24T13:41:32;2.97;;;0.77;;
19406;SDS011;9839;53.364;-1.204;2023-06-24T13:44:02;1.23;;;0.90;;
19406;SDS011;9839;53.364;-1.204;2023-06-24T13:46:28;3.13;;;1.02;;
19406;SDS011;9839;53.364;-1.204;2023-06-24T13:48:54;1.33;;;1.10;;
19406;SDS011;9839;53.364;-1.204;2023-06-24T13:51:21;3.55;;;1.00;;
19406;SDS011;9839;53.364;-1.204;2023-06-24T13:53:50;1.52;;;1.25;;
19406;SDS011;9839;53.364;-1.204;2023-06-24T13:56:17;3.20;;;1.33;;
19406;SDS011;9839;53.364;-1.204;2023-06-24T13:58:43;1.27;;;1.17;;
19406;SDS011;9839;53.364;-1.204;2023-06-24T14:01:09;1.50;;;1.25;;
19406;SDS011;9839;53.364;-1.204;2023-06-24T14:03:34;1.83;;;1.20;;
19406;SDS011;9839;53.364;-1.204;2023-06-24T14:06:00;2.90;;;1.17;;
19406;SDS011;9839;53.364;-1.204;2023-06-24T14:08:27;2.60;;;1.20;;
19406;SDS011;9839;53.364;-1.204;2023-06-24T14:10:54;2.10;;;1.33;;
19406;SDS011;9839;53.364;-1.204;2023-06-24T14:13:20;1.10;;;0.80;;
19406;SDS011;9839;53.364;-1.204;2023-06-24T14:15:45;1.33;;;1.23;;
19406;SDS011;9839;53.364;-1.204;2023-06-24T14:18:10;1.55;;;1.23;;
19406;SDS011;9839;53.364;-1.204;2023-06-24T14:20:36;2.88;;;1.15;;
19406;SDS011;9839;53.364;-1.204;2023-06-24T14:23:02;2.08;;;1.45;;
19406;SDS011;9839;53.364;-1.204;2023-06-24T14:25:27;2.10;;;1.60;;
19406;SDS011;9839;53.364;-1.204;2023-06-24T14:27:53;4.25;;;1.27;;
19406;SDS011;9839;53.364;-1.204;2023-06-24T14:30:18;2.13;;;1.35;;
19406;SDS011;9839;53.364;-1.204;2023-06-24T14:32:43;2.00;;;1.42;;
19406;SDS011;9839;53.364;-1.204;2023-06-24T14:35:09;1.73;;;1.50;;
19406;SDS011;9839;53.364;-1.204;2023-06-24T14:37:34;2.88;;;1.50;;
19406;SDS011;9839;53.364;-1.204;2023-06-24T14:40:00;1.17;;;1.05;;
19406;SDS011;9839;53.364;-1.204;2023-06-24T14:42:25;2.03;;;1.45;;
19406;SDS011;9839;53.364;-1.204;2023-06-24T14:44:51;1.60;;;1.48;;
19406;SDS011;9839;53.364;-1.204;2023-06-24T14:47:16;1.90;;;1.30;;
19406;SDS011;9839;53.364;-1.204;2023-06-24T14:49:42;3.78;;;1.15;;
19406;SDS011;9839;53.364;-1.204;2023-06-24T14:52:07;1.90;;;1.15;;
19406;SDS011;9839;53.364;-1.204;2023-06-24T14:54:32;2.90;;;1.30;;
19406;SDS011;9839;53.364;-1.204;2023-06-24T14:56:58;2.95;;;1.40;;
19406;SDS011;9839;53.364;-1.204;2023-06-24T14:59:23;3.10;;;1.30;;
19406;SDS011;9839;53.364;-1.204;2023-06-24T15:01:49;1.88;;;1.17;;
19406;SDS011;9839;53.364;-1.204;2023-06-24T15:04:14;2.13;;;1.50;;
19406;SDS011;9839;53.364;-1.204;2023-06-24T15:06:40;2.00;;;1.48;;
19406;SDS011;9839;53.364;-1.204;2023-06-24T15:09:05;3.00;;;1.50;;
19406;SDS011;9839;53.364;-1.204;2023-06-24T15:11:31;1.33;;;1.15;;